sensor_id;sensor_type;location;lat;lon;timestamp;pressure;altitude;pressure_sealevel;temperature
43292;BMP280;28754;47.700;7.924;2022-12-18T00:00:43;91929.72;;;-3.68
43292;BMP280;28754;47.700;7.924;2022-12-18T00:03:30;91950.03;;;-3.71
43292;BMP280;28754;47.700;7.924;2022-12-18T00:06:17;91939.09;;;-3.70
43292;BMP280;28754;47.700;7.924;2022-12-18T00:09:04;91932.34;;;-3.69
43292;BMP280;28754;47.700;7.924;2022-12-18T00:11:51;91928.47;;;-3.72
43292;BMP280;28754;47.700;7.924;2022-12-18T00:14:38;91924.53;;;-3.66
43292;BMP280;28754;47.700;7.924;2022-12-18T00:17:24;91915.13;;;-3.64
43292;BMP280;28754;47.700;7.924;2022-12-18T00:20:11;91929.34;;;-3.57
43292;BMP280;28754;47.700;7.924;2022-12-18T00:22:58;91924.16;;;-3.55
43292;BMP280;28754;47.700;7.924;2022-12-18T00:26:12;91927.66;;;-3.64
43292;BMP280;28754;47.700;7.924;2022-12-18T00:29:11;91935.47;;;-3.67
43292;BMP280;28754;47.700;7.924;2022-12-18T00:32:04;91928.16;;;-3.77
43292;BMP280;28754;47.700;7.924;2022-12-18T00:34:52;91938.97;;;-3.84
43292;BMP280;28754;47.700;7.924;2022-12-18T00:37:40;91928.69;;;-3.89
43292;BMP280;28754;47.700;7.924;2022-12-18T00:40:28;91934.66;;;-3.98
43292;BMP280;28754;47.700;7.924;2022-12-18T00:43:15;91946.53;;;-4.08
43292;BMP280;28754;47.700;7.924;2022-12-18T00:46:03;91946.38;;;-4.22
43292;BMP280;28754;47.700;7.924;2022-12-18T00:48:50;91946.72;;;-4.33
43292;BMP280;28754;47.700;7.924;2022-12-18T00:51:36;91948.00;;;-4.44
43292;BMP280;28754;47.700;7.924;2022-12-18T00:54:23;91944.84;;;-4.54
43292;BMP280;28754;47.700;7.924;2022-12-18T00:57:10;91943.13;;;-4.54
43292;BMP280;28754;47.700;7.924;2022-12-18T00:59:57;91956.25;;;-4.52
43292;BMP280;28754;47.700;7.924;2022-12-18T01:02:44;91952.03;;;-4.51
43292;BMP280;28754;47.700;7.924;2022-12-18T01:05:30;91966.56;;;-4.55
43292;BMP280;28754;47.700;7.924;2022-12-18T01:08:17;91956.09;;;-4.58
43292;BMP280;28754;47.700;7.924;2022-12-18T01:11:10;91965.00;;;-4.56
43292;BMP280;28754;47.700;7.924;2022-12-18T01:13:58;91978.13;;;-4.54
43292;BMP280;28754;47.700;7.924;2022-12-18T01:16:45;91970.94;;;-4.57
43292;BMP280;28754;47.700;7.924;2022-12-18T01:19:32;91978.72;;;-4.60
43292;BMP280;28754;47.700;7.924;2022-12-18T01:22:18;91969.22;;;-4.72
43292;BMP280;28754;47.700;7.924;2022-12-18T01:25:05;91983.69;;;-4.83
43292;BMP280;28754;47.700;7.924;2022-12-18T01:27:52;91988.69;;;-4.83
43292;BMP280;28754;47.700;7.924;2022-12-18T01:30:39;91983.69;;;-4.83
43292;BMP280;28754;47.700;7.924;2022-12-18T01:33:26;91987.78;;;-4.82
43292;BMP280;28754;47.700;7.924;2022-12-18T01:36:23;91988.09;;;-4.78
43292;BMP280;28754;47.700;7.924;2022-12-18T01:39:13;91993.09;;;-4.78
43292;BMP280;28754;47.700;7.924;2022-12-18T01:42:14;91999.16;;;-4.80
43292;BMP280;28754;47.700;7.924;2022-12-18T01:48:07;91992.56;;;-4.97
43292;BMP280;28754;47.700;7.924;2022-12-18T01:50:55;92008.03;;;-5.01
43292;BMP280;28754;47.700;7.924;2022-12-18T01:53:44;91989.91;;;-5.11
43292;BMP280;28754;47.700;7.924;2022-12-18T01:56:32;91997.09;;;-5.08
43292;BMP280;28754;47.700;7.924;2022-12-18T01:59:19;91995.50;;;-5.09
43292;BMP280;28754;47.700;7.924;2022-12-18T02:02:07;92006.13;;;-5.15
43292;BMP280;28754;47.700;7.924;2022-12-18T02:04:54;92015.75;;;-5.20
43292;BMP280;28754;47.700;7.924;2022-12-18T02:08:25;92009.81;;;-5.27
43292;BMP280;28754;47.700;7.924;2022-12-18T02:11:44;92003.09;;;-5.26
43292;BMP280;28754;47.700;7.924;2022-12-18T02:17:55;91997.50;;;-5.20
43292;BMP280;28754;47.700;7.924;2022-12-18T02:21:00;92014.38;;;-5.14
43292;BMP280;28754;47.700;7.924;2022-12-18T02:24:19;92007.53;;;-5.13
43292;BMP280;28754;47.700;7.924;2022-12-18T02:27:11;92023.91;;;-5.10
43292;BMP280;28754;47.700;7.924;2022-12-18T02:30:01;92008.16;;;-5.11
43292;BMP280;28754;47.700;7.924;2022-12-18T02:32:52;92017.78;;;-5.15
43292;BMP280;28754;47.700;7.924;2022-12-18T02:35:42;92016.25;;;-5.16
43292;BMP280;28754;47.700;7.924;2022-12-18T02:38:30;92022.66;;;-5.14
43292;BMP280;28754;47.700;7.924;2022-12-18T02:41:23;92025.78;;;-5.12
43292;BMP280;28754;47.700;7.924;2022-12-18T02:44:14;92014.53;;;-5.16
43292;BMP280;28754;47.700;7.924;2022-12-18T02:47:02;92017.50;;;-5.13
43292;BMP280;28754;47.700;7.924;2022-12-18T02:50:33;92012.06;;;-5.08
43292;BMP280;28754;47.700;7.924;2022-12-18T02:53:43;92009.25;;;-5.13
43292;BMP280;28754;47.700;7.924;2022-12-18T02:57:05;92013.94;;;-5.10
43292;BMP280;28754;47.700;7.924;2022-12-18T03:00:31;92014.56;;;-5.08
43292;BMP280;28754;47.700;7.924;2022-12-18T03:04:11;92017.38;;;-5.11
43292;BMP280;28754;47.700;7.924;2022-12-18T03:07:39;92012.19;;;-5.17
43292;BMP280;28754;47.700;7.924;2022-12-18T03:10:37;92020.75;;;-5.20
43292;BMP280;28754;47.700;7.924;2022-12-18T03:13:30;92015.28;;;-5.23
43292;BMP280;28754;47.700;7.924;2022-12-18T03:16:27;92026.66;;;-5.29
43292;BMP280;28754;47.700;7.924;2022-12-18T03:19:20;92022.25;;;-5.35
43292;BMP280;28754;47.700;7.924;2022-12-18T03:22:16;92029.56;;;-5.41
43292;BMP280;28754;47.700;7.924;2022-12-18T03:25:14;92050.59;;;-5.44
43292;BMP280;28754;47.700;7.924;2022-12-18T03:28:09;92028.31;;;-5.45
43292;BMP280;28754;47.700;7.924;2022-12-18T03:31:02;92033.31;;;-5.45
43292;BMP280;28754;47.700;7.924;2022-12-18T03:34:09;92029.09;;;-5.45
43292;BMP280;28754;47.700;7.924;2022-12-18T03:37:05;92040.94;;;-5.47
43292;BMP280;28754;47.700;7.924;2022-12-18T03:39:53;92045.28;;;-5.48
43292;BMP280;28754;47.700;7.924;2022-12-18T03:43:05;92050.28;;;-5.48
43292;BMP280;28754;47.700;7.924;2022-12-18T03:46:09;92056.50;;;-5.52
43292;BMP280;28754;47.700;7.924;2022-12-18T03:49:18;92046.22;;;-5.49
43292;BMP280;28754;47.700;7.924;2022-12-18T03:52:37;92047.19;;;-5.43
43292;BMP280;28754;47.700;7.924;2022-12-18T03:55:32;92042.66;;;-5.39
43292;BMP280;28754;47.700;7.924;2022-12-18T03:58:25;92037.72;;;-5.31
43292;BMP280;28754;47.700;7.924;2022-12-18T04:01:37;92041.44;;;-5.35
43292;BMP280;28754;47.700;7.924;2022-12-18T04:04:28;92055.34;;;-5.33
43292;BMP280;28754;47.700;7.924;2022-12-18T04:07:21;92053.63;;;-5.32
43292;BMP280;28754;47.700;7.924;2022-12-18T04:10:13;92040.84;;;-5.29
43292;BMP280;28754;47.700;7.924;2022-12-18T04:13:02;92040.34;;;-5.33
43292;BMP280;28754;47.700;7.924;2022-12-18T04:15:51;92040.34;;;-5.33
43292;BMP280;28754;47.700;7.924;2022-12-18T04:18:44;92041.00;;;-5.31
43292;BMP280;28754;47.700;7.924;2022-12-18T04:21:34;92037.00;;;-5.24
43292;BMP280;28754;47.700;7.924;2022-12-18T04:24:27;92051.03;;;-5.23
43292;BMP280;28754;47.700;7.924;2022-12-18T04:27:29;92051.16;;;-5.24
43292;BMP280;28754;47.700;7.924;2022-12-18T04:30:19;92054.75;;;-5.27
43292;BMP280;28754;47.700;7.924;2022-12-18T04:33:13;92061.59;;;-5.29
43292;BMP280;28754;47.700;7.924;2022-12-18T04:36:00;92051.44;;;-5.35
43292;BMP280;28754;47.700;7.924;2022-12-18T04:38:47;92075.28;;;-5.33
43292;BMP280;28754;47.700;7.924;2022-12-18T04:41:36;92050.69;;;-5.28
43292;BMP280;28754;47.700;7.924;2022-12-18T04:44:24;92047.56;;;-5.22
43292;BMP280;28754;47.700;7.924;2022-12-18T04:47:11;92050.06;;;-5.22
43292;BMP280;28754;47.700;7.924;2022-12-18T04:49:57;92051.03;;;-5.23
43292;BMP280;28754;47.700;7.924;2022-12-18T04:52:44;92042.41;;;-5.28
43292;BMP280;28754;47.700;7.924;2022-12-18T04:55:33;92048.03;;;-5.26
43292;BMP280;28754;47.700;7.924;2022-12-18T04:58:20;92030.56;;;-5.26
43292;BMP280;28754;47.700;7.924;2022-12-18T05:05:51;92049.94;;;-5.20
43292;BMP280;28754;47.700;7.924;2022-12-18T05:08:38;92049.78;;;-5.19
43292;BMP280;28754;47.700;7.924;2022-12-18T05:11:25;92053.25;;;-5.12
43292;BMP280;28754;47.700;7.924;2022-12-18T05:14:12;92056.41;;;-5.02
43292;BMP280;28754;47.700;7.924;2022-12-18T05:17:00;92045.50;;;-4.93
43292;BMP280;28754;47.700;7.924;2022-12-18T05:19:49;92051.63;;;-4.80
43292;BMP280;28754;47.700;7.924;2022-12-18T05:22:36;92056.16;;;-4.76
43292;BMP280;28754;47.700;7.924;2022-12-18T05:25:24;92048.97;;;-4.71
43292;BMP280;28754;47.700;7.924;2022-12-18T05:28:11;92071.34;;;-4.61
43292;BMP280;28754;47.700;7.924;2022-12-18T05:31:00;92051.38;;;-4.61
43292;BMP280;28754;47.700;7.924;2022-12-18T05:33:48;92056.81;;;-4.58
43292;BMP280;28754;47.700;7.924;2022-12-18T05:36:35;92052.91;;;-4.60
43292;BMP280;28754;47.700;7.924;2022-12-18T05:39:21;92056.69;;;-4.48
43292;BMP280;28754;47.700;7.924;2022-12-18T05:42:08;92062.97;;;-4.44
43292;BMP280;28754;47.700;7.924;2022-12-18T05:44:55;92061.09;;;-4.43
43292;BMP280;28754;47.700;7.924;2022-12-18T05:47:42;92070.00;;;-4.40
43292;BMP280;28754;47.700;7.924;2022-12-18T05:50:28;92068.56;;;-4.35
43292;BMP280;28754;47.700;7.924;2022-12-18T05:53:21;92062.19;;;-4.29
43292;BMP280;28754;47.700;7.924;2022-12-18T05:56:18;92075.59;;;-4.30
43292;BMP280;28754;47.700;7.924;2022-12-18T05:59:04;92075.94;;;-4.33
43292;BMP280;28754;47.700;7.924;2022-12-18T06:01:51;92065.63;;;-4.38
43292;BMP280;28754;47.700;7.924;2022-12-18T06:04:38;92069.34;;;-4.34
43292;BMP280;28754;47.700;7.924;2022-12-18T06:07:25;92082.19;;;-4.29
43292;BMP280;28754;47.700;7.924;2022-12-18T06:10:12;92059.84;;;-4.31
43292;BMP280;28754;47.700;7.924;2022-12-18T06:13:02;92090.31;;;-4.19
43292;BMP280;28754;47.700;7.924;2022-12-18T06:15:49;92077.34;;;-4.23
43292;BMP280;28754;47.700;7.924;2022-12-18T06:18:38;92086.56;;;-4.15
43292;BMP280;28754;47.700;7.924;2022-12-18T06:21:25;92102.69;;;-4.10
43292;BMP280;28754;47.700;7.924;2022-12-18T06:24:12;92107.06;;;-4.12
43292;BMP280;28754;47.700;7.924;2022-12-18T06:26:59;92109.69;;;-4.13
43292;BMP280;28754;47.700;7.924;2022-12-18T06:29:47;92107.19;;;-4.13
43292;BMP280;28754;47.700;7.924;2022-12-18T06:32:38;92108.78;;;-4.12
43292;BMP280;28754;47.700;7.924;2022-12-18T06:35:29;92111.56;;;-4.15
43292;BMP280;28754;47.700;7.924;2022-12-18T06:38:16;92096.09;;;-4.11
43292;BMP280;28754;47.700;7.924;2022-12-18T06:41:15;92120.34;;;-3.96
43292;BMP280;28754;47.700;7.924;2022-12-18T06:44:03;92102.53;;;-4.01
43292;BMP280;28754;47.700;7.924;2022-12-18T06:46:49;92129.72;;;-3.90
43292;BMP280;28754;47.700;7.924;2022-12-18T06:49:36;92117.06;;;-3.88
43292;BMP280;28754;47.700;7.924;2022-12-18T06:52:23;92124.09;;;-3.92
43292;BMP280;28754;47.700;7.924;2022-12-18T06:55:11;92123.19;;;-3.91
43292;BMP280;28754;47.700;7.924;2022-12-18T06:57:57;92125.97;;;-3.86
43292;BMP280;28754;47.700;7.924;2022-12-18T07:00:44;92126.75;;;-3.85
43292;BMP280;28754;47.700;7.924;2022-12-18T07:03:31;92133.34;;;-3.84
43292;BMP280;28754;47.700;7.924;2022-12-18T07:06:21;92130.06;;;-3.85
43292;BMP280;28754;47.700;7.924;2022-12-18T07:09:08;92135.66;;;-3.83
43292;BMP280;28754;47.700;7.924;2022-12-18T07:11:54;92125.97;;;-3.86
43292;BMP280;28754;47.700;7.924;2022-12-18T07:14:41;92133.50;;;-3.86
43292;BMP280;28754;47.700;7.924;2022-12-18T07:17:28;92132.84;;;-3.88
43292;BMP280;28754;47.700;7.924;2022-12-18T07:20:15;92126.59;;;-3.92
43292;BMP280;28754;47.700;7.924;2022-12-18T07:23:04;92126.59;;;-3.92
43292;BMP280;28754;47.700;7.924;2022-12-18T07:25:54;92133.81;;;-3.89
43292;BMP280;28754;47.700;7.924;2022-12-18T07:29:10;92131.75;;;-3.85
43292;BMP280;28754;47.700;7.924;2022-12-18T07:32:13;92142.56;;;-3.85
43292;BMP280;28754;47.700;7.924;2022-12-18T07:35:04;92149.75;;;-3.66
43292;BMP280;28754;47.700;7.924;2022-12-18T07:37:54;92144.44;;;-3.55
43292;BMP280;28754;47.700;7.924;2022-12-18T07:40:49;92146.16;;;-3.56
43292;BMP280;28754;47.700;7.924;2022-12-18T07:43:40;92136.16;;;-3.56
43292;BMP280;28754;47.700;7.924;2022-12-18T07:46:48;92146.63;;;-3.60
43292;BMP280;28754;47.700;7.924;2022-12-18T07:50:31;92134.41;;;-3.79
43292;BMP280;28754;47.700;7.924;2022-12-18T07:53:47;92150.84;;;-3.84
43292;BMP280;28754;47.700;7.924;2022-12-18T07:57:06;92177.13;;;-3.73
43292;BMP280;28754;47.700;7.924;2022-12-18T07:59:53;92160.38;;;-3.64
43292;BMP280;28754;47.700;7.924;2022-12-18T08:03:01;92161.16;;;-3.64
43292;BMP280;28754;47.700;7.924;2022-12-18T08:06:15;92171.50;;;-3.59
43292;BMP280;28754;47.700;7.924;2022-12-18T08:09:07;92178.53;;;-3.62
43292;BMP280;28754;47.700;7.924;2022-12-18T08:12:35;92184.78;;;-3.42
43292;BMP280;28754;47.700;7.924;2022-12-18T08:15:41;92195.91;;;-3.37
43292;BMP280;28754;47.700;7.924;2022-12-18T08:18:58;92182.75;;;-3.23
43292;BMP280;28754;47.700;7.924;2022-12-18T08:22:17;92191.13;;;-2.69
43292;BMP280;28754;47.700;7.924;2022-12-18T08:29:41;92173.59;;;0.99
43292;BMP280;28754;47.700;7.924;2022-12-18T08:32:58;92210.16;;;2.04
43292;BMP280;28754;47.700;7.924;2022-12-18T08:36:01;92104.97;;;2.55
43292;BMP280;28754;47.700;7.924;2022-12-18T08:43:34;92172.66;;;3.69
43292;BMP280;28754;47.700;7.924;2022-12-18T08:47:14;92170.81;;;4.08
43292;BMP280;28754;47.700;7.924;2022-12-18T08:50:14;92144.16;;;4.79
43292;BMP280;28754;47.700;7.924;2022-12-18T08:53:11;92150.66;;;5.47
43292;BMP280;28754;47.700;7.924;2022-12-18T08:56:26;92122.38;;;5.62
43292;BMP280;28754;47.700;7.924;2022-12-18T08:59:43;92142.22;;;5.71
43292;BMP280;28754;47.700;7.924;2022-12-18T09:03:23;92149.47;;;5.92
43292;BMP280;28754;47.700;7.924;2022-12-18T09:06:39;92149.91;;;6.24
43292;BMP280;28754;47.700;7.924;2022-12-18T09:09:29;92141.28;;;6.72
43292;BMP280;28754;47.700;7.924;2022-12-18T09:12:17;92155.75;;;7.01
43292;BMP280;28754;47.700;7.924;2022-12-18T09:15:06;92160.00;;;7.18
43292;BMP280;28754;47.700;7.924;2022-12-18T09:37:20;92161.63;;;8.99
43292;BMP280;28754;47.700;7.924;2022-12-18T11:01:16;92109.25;;;15.58
43292;BMP280;28754;47.700;7.924;2022-12-18T11:04:09;92110.41;;;15.42
43292;BMP280;28754;47.700;7.924;2022-12-18T11:07:08;92096.94;;;15.02
43292;BMP280;28754;47.700;7.924;2022-12-18T11:10:01;92106.84;;;14.76
43292;BMP280;28754;47.700;7.924;2022-12-18T11:12:48;92104.59;;;14.59
43292;BMP280;28754;47.700;7.924;2022-12-18T11:15:35;92098.50;;;14.31
43292;BMP280;28754;47.700;7.924;2022-12-18T11:18:30;92098.53;;;14.11
43292;BMP280;28754;47.700;7.924;2022-12-18T11:21:18;92098.53;;;13.86
43292;BMP280;28754;47.700;7.924;2022-12-18T11:24:19;92091.84;;;13.80
43292;BMP280;28754;47.700;7.924;2022-12-18T11:27:17;92093.66;;;13.80
43292;BMP280;28754;47.700;7.924;2022-12-18T11:30:27;92090.31;;;13.70
43292;BMP280;28754;47.700;7.924;2022-12-18T11:33:21;92095.22;;;13.56
43292;BMP280;28754;47.700;7.924;2022-12-18T11:36:10;92102.13;;;13.46
43292;BMP280;28754;47.700;7.924;2022-12-18T11:39:03;92096.47;;;13.39
43292;BMP280;28754;47.700;7.924;2022-12-18T11:42:10;92101.84;;;13.23
43292;BMP280;28754;47.700;7.924;2022-12-18T11:48:34;92094.16;;;13.72
43292;BMP280;28754;47.700;7.924;2022-12-18T11:51:36;92084.38;;;13.44
43292;BMP280;28754;47.700;7.924;2022-12-18T11:54:24;92100.53;;;13.01
43292;BMP280;28754;47.700;7.924;2022-12-18T12:00:19;92089.03;;;12.52
43292;BMP280;28754;47.700;7.924;2022-12-18T12:11:01;92087.84;;;12.19
43292;BMP280;28754;47.700;7.924;2022-12-18T12:17:47;92077.91;;;11.86
43292;BMP280;28754;47.700;7.924;2022-12-18T12:23:47;92087.78;;;11.37
43292;BMP280;28754;47.700;7.924;2022-12-18T12:27:07;92090.25;;;11.01
43292;BMP280;28754;47.700;7.924;2022-12-18T12:37:33;92071.91;;;10.83
43292;BMP280;28754;47.700;7.924;2022-12-18T12:40:32;92072.13;;;11.07
43292;BMP280;28754;47.700;7.924;2022-12-18T12:43:35;92062.53;;;11.24
43292;BMP280;28754;47.700;7.924;2022-12-18T12:50:14;92080.16;;;10.63
43292;BMP280;28754;47.700;7.924;2022-12-18T12:57:40;92076.50;;;10.12
43292;BMP280;28754;47.700;7.924;2022-12-18T13:01:00;92076.28;;;9.97
43292;BMP280;28754;47.700;7.924;2022-12-18T13:04:21;92081.09;;;9.94
43292;BMP280;28754;47.700;7.924;2022-12-18T13:08:21;92069.63;;;9.80
43292;BMP280;28754;47.700;7.924;2022-12-18T13:11:40;92082.09;;;9.77
43292;BMP280;28754;47.700;7.924;2022-12-18T13:14:46;92068.34;;;9.61
43292;BMP280;28754;47.700;7.924;2022-12-18T13:17:36;92075.34;;;9.50
43292;BMP280;28754;47.700;7.924;2022-12-18T13:20:37;92074.81;;;9.48
43292;BMP280;28754;47.700;7.924;2022-12-18T13:23:35;92074.31;;;9.51
43292;BMP280;28754;47.700;7.924;2022-12-18T13:29:09;92079.22;;;9.52
43292;BMP280;28754;47.700;7.924;2022-12-18T13:32:51;92076.59;;;9.31
43292;BMP280;28754;47.700;7.924;2022-12-18T13:36:15;92063.56;;;9.16
43292;BMP280;28754;47.700;7.924;2022-12-18T13:39:23;92068.06;;;9.09
43292;BMP280;28754;47.700;7.924;2022-12-18T13:45:43;92059.09;;;9.07
43292;BMP280;28754;47.700;7.924;2022-12-18T13:48:37;92055.03;;;9.11
43292;BMP280;28754;47.700;7.924;2022-12-18T13:51:26;92053.34;;;9.16
43292;BMP280;28754;47.700;7.924;2022-12-18T13:54:35;92056.75;;;9.22
43292;BMP280;28754;47.700;7.924;2022-12-18T13:57:38;92060.72;;;9.29
43292;BMP280;28754;47.700;7.924;2022-12-18T14:50:28;92077.84;;;7.45
43292;BMP280;28754;47.700;7.924;2022-12-18T14:53:23;92065.56;;;7.42
43292;BMP280;28754;47.700;7.924;2022-12-18T14:56:15;92064.44;;;7.50
43292;BMP280;28754;47.700;7.924;2022-12-18T14:59:06;92060.78;;;7.46
43292;BMP280;28754;47.700;7.924;2022-12-18T15:02:13;92063.13;;;7.36
43292;BMP280;28754;47.700;7.924;2022-12-18T15:08:38;92071.81;;;6.94
43292;BMP280;28754;47.700;7.924;2022-12-18T15:14:41;92085.97;;;6.90
43292;BMP280;28754;47.700;7.924;2022-12-18T15:17:28;92091.16;;;6.84
43292;BMP280;28754;47.700;7.924;2022-12-18T15:20:53;92085.84;;;6.74
43292;BMP280;28754;47.700;7.924;2022-12-18T15:23:53;92085.66;;;6.58
43292;BMP280;28754;47.700;7.924;2022-12-18T15:26:50;92086.13;;;6.37
43292;BMP280;28754;47.700;7.924;2022-12-18T15:29:39;92083.94;;;6.12
43292;BMP280;28754;47.700;7.924;2022-12-18T15:32:26;92089.78;;;5.94
43292;BMP280;28754;47.700;7.924;2022-12-18T15:35:22;92101.75;;;5.76
43292;BMP280;28754;47.700;7.924;2022-12-18T15:38:09;92099.50;;;5.62
43292;BMP280;28754;47.700;7.924;2022-12-18T15:40:57;92105.06;;;5.52
43292;BMP280;28754;47.700;7.924;2022-12-18T15:43:46;92102.59;;;5.46
43292;BMP280;28754;47.700;7.924;2022-12-18T15:46:46;92103.81;;;5.44
43292;BMP280;28754;47.700;7.924;2022-12-18T15:49:33;92106.06;;;5.51
43292;BMP280;28754;47.700;7.924;2022-12-18T15:52:19;92108.53;;;5.58
43292;BMP280;28754;47.700;7.924;2022-12-18T15:55:15;92111.38;;;5.68
43292;BMP280;28754;47.700;7.924;2022-12-18T15:58:20;92120.16;;;5.72
43292;BMP280;28754;47.700;7.924;2022-12-18T16:01:09;92126.41;;;5.69
43292;BMP280;28754;47.700;7.924;2022-12-18T16:03:57;92115.13;;;5.65
43292;BMP280;28754;47.700;7.924;2022-12-18T16:21:09;92108.22;;;5.72
43292;BMP280;28754;47.700;7.924;2022-12-18T16:33:47;92088.88;;;5.71
43292;BMP280;28754;47.700;7.924;2022-12-18T16:36:45;92099.66;;;5.67
43292;BMP280;28754;47.700;7.924;2022-12-18T16:39:41;92095.63;;;5.59
43292;BMP280;28754;47.700;7.924;2022-12-18T16:42:44;92098.94;;;5.60
43292;BMP280;28754;47.700;7.924;2022-12-18T17:23:33;92106.34;;;5.61
43292;BMP280;28754;47.700;7.924;2022-12-18T17:26:47;92088.44;;;5.56
43292;BMP280;28754;47.700;7.924;2022-12-18T17:30:06;92087.56;;;5.62
43292;BMP280;28754;47.700;7.924;2022-12-18T17:37:26;92091.41;;;5.71
43292;BMP280;28754;47.700;7.924;2022-12-18T17:40:21;92097.28;;;5.72
43292;BMP280;28754;47.700;7.924;2022-12-18T17:43:50;92096.09;;;5.74
43292;BMP280;28754;47.700;7.924;2022-12-18T17:46:45;92085.97;;;5.68
43292;BMP280;28754;47.700;7.924;2022-12-18T17:49:32;92101.38;;;5.73
43292;BMP280;28754;47.700;7.924;2022-12-18T17:52:19;92105.06;;;5.77
43292;BMP280;28754;47.700;7.924;2022-12-18T17:55:13;92113.44;;;5.77
43292;BMP280;28754;47.700;7.924;2022-12-18T17:58:05;92104.72;;;5.73
43292;BMP280;28754;47.700;7.924;2022-12-18T18:13:01;92097.47;;;5.52
43292;BMP280;28754;47.700;7.924;2022-12-18T18:16:42;92099.88;;;5.47
43292;BMP280;28754;47.700;7.924;2022-12-18T18:19:32;92089.38;;;5.38
43292;BMP280;28754;47.700;7.924;2022-12-18T18:35:24;92094.78;;;5.47
43292;BMP280;28754;47.700;7.924;2022-12-18T18:38:17;92085.78;;;5.45
43292;BMP280;28754;47.700;7.924;2022-12-18T18:41:12;92084.63;;;5.47
43292;BMP280;28754;47.700;7.924;2022-12-18T18:52:08;92085.03;;;5.45
43292;BMP280;28754;47.700;7.924;2022-12-18T18:54:55;92098.28;;;5.46
43292;BMP280;28754;47.700;7.924;2022-12-18T18:57:44;92094.63;;;5.43
43292;BMP280;28754;47.700;7.924;2022-12-18T19:00:39;92098.50;;;5.45
43292;BMP280;28754;47.700;7.924;2022-12-18T19:03:40;92097.72;;;5.45
43292;BMP280;28754;47.700;7.924;2022-12-18T19:06:39;92089.75;;;5.41
43292;BMP280;28754;47.700;7.924;2022-12-18T19:09:40;92111.81;;;5.41
43292;BMP280;28754;47.700;7.924;2022-12-18T19:12:51;92083.88;;;5.41
43292;BMP280;28754;47.700;7.924;2022-12-18T19:58:27;92060.63;;;5.02
43292;BMP280;28754;47.700;7.924;2022-12-18T20:20:16;92064.34;;;4.99
43292;BMP280;28754;47.700;7.924;2022-12-18T20:32:34;92049.66;;;4.83
43292;BMP280;28754;47.700;7.924;2022-12-18T20:35:26;92070.91;;;4.82
43292;BMP280;28754;47.700;7.924;2022-12-18T20:38:14;92060.75;;;4.82
43292;BMP280;28754;47.700;7.924;2022-12-18T20:53:07;92079.47;;;5.12
43292;BMP280;28754;47.700;7.924;2022-12-18T20:56:08;92070.09;;;5.12
43292;BMP280;28754;47.700;7.924;2022-12-18T20:59:01;92086.25;;;5.18
43292;BMP280;28754;47.700;7.924;2022-12-18T21:01:48;92076.31;;;5.16
43292;BMP280;28754;47.700;7.924;2022-12-18T21:04:35;92070.22;;;5.17
43292;BMP280;28754;47.700;7.924;2022-12-18T21:07:22;92082.84;;;5.24
43292;BMP280;28754;47.700;7.924;2022-12-18T21:10:09;92068.25;;;5.19
43292;BMP280;28754;47.700;7.924;2022-12-18T21:12:56;92082.84;;;5.24
43292;BMP280;28754;47.700;7.924;2022-12-18T21:15:42;92071.59;;;5.20
43292;BMP280;28754;47.700;7.924;2022-12-18T21:18:29;92082.09;;;5.23
43292;BMP280;28754;47.700;7.924;2022-12-18T21:21:16;92085.00;;;5.27
43292;BMP280;28754;47.700;7.924;2022-12-18T21:24:03;92085.78;;;5.27
43292;BMP280;28754;47.700;7.924;2022-12-18T21:27:01;92090.09;;;5.27
43292;BMP280;28754;47.700;7.924;2022-12-18T23:04:28;92091.00;;;5.74
43292;BMP280;28754;47.700;7.924;2022-12-18T23:07:50;92080.84;;;5.74
43292;BMP280;28754;47.700;7.924;2022-12-18T23:11:04;92082.53;;;5.80
43292;BMP280;28754;47.700;7.924;2022-12-18T23:29:16;92096.78;;;5.81
43292;BMP280;28754;47.700;7.924;2022-12-18T23:55:44;92058.91;;;5.80
43292;BMP280;28754;47.700;7.924;2022-12-18T23:58:32;92072.38;;;5.80
